Time;durP1;ratioP1;P1;durP2;ratioP2;P2;SDS_P1;SDS_P2;PMS_P1;PMS_P2;Temp;Humidity;BMP_temperature;BMP_pressure;BME280_temperature;BME280_humidity;BME280_pressure;Samples;Min_cycle;Max_cycle;Signal;HPM_P1;HPM_P2
2022/07/21 00:01:35;;;;;;;11.48;6.35;;;12.20;99.90;;;;;;5019359;28;20063;-68
2022/07/21 00:04:03;;;;;;;9.98;6.05;;;12.20;99.90;;;;;;5021645;28;20045;-68
2022/07/21 00:06:30;;;;;;;14.63;7.72;;;12.20;99.90;;;;;;5016786;28;20121;-67
2022/07/21 00:08:57;;;;;;;9.90;7.93;;;12.20;99.90;;;;;;5019782;28;20065;-67
2022/07/21 00:11:24;;;;;;;24.42;8.40;;;12.10;99.90;;;;;;5017929;28;20037;-67
2022/07/21 00:13:52;;;;;;;17.98;8.55;;;12.10;99.90;;;;;;5018159;28;20054;-67
2022/07/21 00:16:19;;;;;;;12.15;8.38;;;12.20;99.90;;;;;;5013719;28;20140;-67
2022/07/21 00:18:47;;;;;;;14.75;8.65;;;12.30;99.90;;;;;;5019043;28;20034;-67
2022/07/21 00:21:14;;;;;;;19.00;9.10;;;12.50;99.90;;;;;;5017222;28;20030;-68
2022/07/21 00:23:41;;;;;;;14.00;9.95;;;12.50;99.90;;;;;;5017868;28;20033;-67
2022/07/21 00:26:09;;;;;;;14.85;8.60;;;12.70;99.90;;;;;;5014844;28;20494;-66
2022/07/21 00:28:36;;;;;;;17.58;8.20;;;12.70;99.90;;;;;;5004436;28;20035;-67
2022/07/21 00:31:03;;;;;;;15.75;9.23;;;12.90;99.90;;;;;;5003016;28;20037;-67
2022/07/21 00:33:30;;;;;;;15.18;9.65;;;13.10;99.90;;;;;;5016238;28;20117;-67
2022/07/21 00:35:58;;;;;;;16.77;7.57;;;13.40;99.90;;;;;;5014356;28;20129;-67
2022/07/21 00:38:25;;;;;;;9.32;6.90;;;13.40;99.90;;;;;;5010341;28;20073;-68
2022/07/21 00:40:53;;;;;;;16.25;5.60;;;13.70;99.90;;;;;;5011382;28;20097;-69
2022/07/21 00:43:21;;;;;;;8.20;4.45;;;13.90;99.90;;;;;;5010071;28;20124;-67
2022/07/21 00:45:48;;;;;;;12.50;6.80;;;14.10;99.90;;;;;;5010889;28;20068;-68
2022/07/21 00:48:15;;;;;;;15.00;7.25;;;14.10;99.90;;;;;;5006993;28;20044;-70
2022/07/21 00:50:43;;;;;;;11.55;6.97;;;14.10;99.90;;;;;;5008210;28;20062;-69
2022/07/21 00:53:10;;;;;;;11.93;5.63;;;14.20;99.90;;;;;;5008421;28;20050;-68
2022/07/21 00:55:37;;;;;;;9.68;5.53;;;14.30;99.90;;;;;;5007804;28;20041;-69
2022/07/21 00:58:05;;;;;;;13.43;4.70;;;14.30;99.90;;;;;;5007622;28;20046;-67
2022/07/21 01:00:32;;;;;;;11.70;4.53;;;14.20;99.90;;;;;;5009080;28;20026;-67
2022/07/21 01:03:00;;;;;;;10.63;1.85;;;14.30;99.90;;;;;;5012194;28;20038;-68
2022/07/21 01:05:27;;;;;;;7.18;0.80;;;14.50;99.90;;;;;;5012198;28;20084;-68
2022/07/21 01:07:55;;;;;;;7.13;1.20;;;14.80;99.90;;;;;;5011567;28;20029;-68
2022/07/21 01:10:24;;;;;;;8.68;0.98;;;15.10;99.90;;;;;;5011598;28;20041;-68
2022/07/21 01:12:52;;;;;;;13.35;2.20;;;15.20;99.90;;;;;;5009830;28;20061;-68
2022/07/21 01:15:20;;;;;;;17.52;2.05;;;15.30;99.90;;;;;;5012188;28;20038;-67
2022/07/21 01:17:48;;;;;;;9.90;1.40;;;15.20;99.90;;;;;;5003951;28;20048;-68
2022/07/21 01:20:19;;;;;;;9.60;1.30;;;15.40;99.90;;;;;;5013980;28;20045;-68
2022/07/21 01:22:49;;;;;;;7.35;1.23;;;15.50;99.90;;;;;;5010831;28;20367;-68
2022/07/21 01:25:18;;;;;;;5.72;0.60;;;15.20;99.90;;;;;;5008608;28;20060;-68
2022/07/21 01:27:46;;;;;;;5.93;0.70;;;15.10;99.90;;;;;;5012258;28;20455;-69
2022/07/21 01:30:14;;;;;;;7.55;1.25;;;15.00;99.90;;;;;;5010967;28;20061;-68
2022/07/21 01:32:42;;;;;;;5.38;1.05;;;15.00;99.90;;;;;;5014698;28;20038;-68
2022/07/21 01:35:13;;;;;;;10.02;1.42;;;14.90;99.90;;;;;;5011647;28;20058;-68
2022/07/21 01:37:46;;;;;;;6.88;0.80;;;14.80;99.90;;;;;;5010765;28;20103;-69
2022/07/21 01:43:01;;;;;;;7.78;1.25;;;14.60;99.90;;;;;;5006908;28;20069;-69
2022/07/21 01:45:28;;;;;;;7.75;0.82;;;14.60;99.90;;;;;;5012431;28;20061;-69
2022/07/21 01:47:56;;;;;;;6.35;0.88;;;14.40;99.90;;;;;;5013183;28;20044;-69
2022/07/21 01:50:26;;;;;;;5.03;0.63;;;14.40;99.90;;;;;;5013061;28;20057;-69
2022/07/21 01:52:55;;;;;;;5.13;0.63;;;14.40;99.90;;;;;;5006779;28;20037;-70
2022/07/21 01:55:24;;;;;;;13.25;1.10;;;14.70;99.90;;;;;;5000320;28;20038;-69
2022/07/21 01:57:51;;;;;;;8.30;0.80;;;14.90;99.90;;;;;;5013054;28;20033;-68
2022/07/21 02:00:19;;;;;;;6.90;1.25;;;15.30;99.90;;;;;;5011595;28;20514;-68
2022/07/21 02:02:46;;;;;;;5.90;0.95;;;15.60;99.90;;;;;;4994113;28;20052;-69
2022/07/21 02:05:14;;;;;;;8.13;0.82;;;15.80;99.90;;;;;;5010450;28;20030;-68
2022/07/21 02:07:41;;;;;;;5.18;0.70;;;15.90;99.90;;;;;;5016881;28;20117;-68
2022/07/21 02:10:09;;;;;;;6.75;1.42;;;15.70;99.90;;;;;;5014935;28;20041;-68
2022/07/21 02:12:36;;;;;;;3.30;0.20;;;15.20;99.90;;;;;;5015845;28;20029;-68
2022/07/21 02:15:04;;;;;;;3.33;0.68;;;14.70;99.90;;;;;;5026456;28;20042;-68
2022/07/21 02:17:32;;;;;;;4.38;0.45;;;14.40;99.90;;;;;;5022190;28;20043;-68
2022/07/21 02:19:59;;;;;;;2.17;0.40;;;14.20;99.90;;;;;;5030691;28;20042;-68
2022/07/21 02:22:26;;;;;;;2.60;0.52;;;14.00;99.90;;;;;;5028759;28;20030;-68
2022/07/21 02:24:53;;;;;;;6.13;0.47;;;14.00;99.90;;;;;;5028668;28;20030;-68
2022/07/21 02:27:21;;;;;;;7.60;0.82;;;14.10;99.90;;;;;;5025543;28;20033;-68
2022/07/21 02:29:48;;;;;;;6.65;0.98;;;13.90;99.90;;;;;;5023234;28;20042;-68
2022/07/21 02:32:15;;;;;;;6.28;0.73;;;14.00;99.90;;;;;;5025993;28;20097;-69
2022/07/21 02:34:43;;;;;;;3.75;1.08;;;13.90;99.90;;;;;;5019471;28;20050;-68
2022/07/21 02:37:10;;;;;;;5.93;0.50;;;13.90;99.90;;;;;;5023054;28;20118;-69
2022/07/21 02:39:37;;;;;;;4.40;0.88;;;13.90;99.90;;;;;;5025372;28;20037;-68
2022/07/21 02:42:05;;;;;;;7.82;0.93;;;14.10;99.90;;;;;;5019586;28;20042;-68
2022/07/21 02:44:32;;;;;;;7.28;0.57;;;14.50;99.90;;;;;;5015710;28;20045;-68
2022/07/21 02:46:59;;;;;;;5.63;0.68;;;14.80;99.90;;;;;;5019370;28;20056;-68
2022/07/21 02:49:26;;;;;;;6.55;0.80;;;15.40;99.90;;;;;;5016479;28;20041;-68
2022/07/21 02:51:54;;;;;;;4.05;0.55;;;15.30;99.90;;;;;;5022413;28;20061;-69
2022/07/21 02:54:21;;;;;;;3.35;0.40;;;15.20;99.90;;;;;;5022960;28;20034;-69
2022/07/21 02:56:48;;;;;;;5.35;1.08;;;15.20;99.90;;;;;;5019259;28;20062;-69
2022/07/21 02:59:28;;;;;;;1.67;0.40;;;15.00;99.90;;;;;;5021413;28;20037;-69
2022/07/21 03:01:55;;;;;;;6.03;0.82;;;15.10;99.90;;;;;;5019711;28;20030;-68
2022/07/21 03:04:23;;;;;;;4.63;0.75;;;15.20;99.90;;;;;;5019066;28;20034;-68
2022/07/21 03:06:50;;;;;;;4.97;0.47;;;15.10;99.90;;;;;;5022419;28;20030;-68
2022/07/21 03:09:17;;;;;;;4.57;0.60;;;15.10;99.90;;;;;;5020735;28;20101;-68
2022/07/21 03:11:44;;;;;;;4.45;0.50;;;15.10;99.90;;;;;;5024203;28;20037;-68
2022/07/21 03:14:12;;;;;;;4.78;0.90;;;15.00;99.90;;;;;;5020072;28;20044;-66
2022/07/21 03:16:39;;;;;;;2.35;0.40;;;15.10;99.90;;;;;;5023755;28;20097;-67
2022/07/21 03:19:06;;;;;;;2.65;0.40;;;15.20;99.90;;;;;;5024434;28;20030;-67
2022/07/21 03:21:33;;;;;;;4.13;0.90;;;15.00;99.90;;;;;;5028084;28;20042;-67
2022/07/21 03:24:00;;;;;;;6.97;1.08;;;14.80;99.90;;;;;;5031464;28;20030;-67
2022/07/21 03:26:28;;;;;;;7.30;1.25;;;14.80;99.90;;;;;;5030581;28;20041;-67
2022/07/21 03:28:55;;;;;;;5.63;1.23;;;14.80;99.90;;;;;;5034530;28;20030;-67
2022/07/21 03:31:22;;;;;;;7.20;0.65;;;14.70;99.90;;;;;;5032622;28;20072;-67
2022/07/21 03:33:49;;;;;;;9.00;1.00;;;14.60;99.90;;;;;;5031656;28;20034;-67
2022/07/21 03:36:17;;;;;;;8.82;1.33;;;14.40;99.90;;;;;;5007775;28;20042;-67
2022/07/21 03:38:44;;;;;;;13.45;1.95;;;14.50;99.90;;;;;;5030673;28;20034;-67
2022/07/21 03:41:11;;;;;;;5.45;0.95;;;14.50;99.90;;;;;;5011307;28;20030;-67
2022/07/21 03:43:38;;;;;;;9.00;0.90;;;14.60;99.90;;;;;;5028751;28;20033;-67
2022/07/21 03:46:06;;;;;;;11.70;1.13;;;14.70;99.90;;;;;;5027556;28;20038;-67
2022/07/21 03:48:33;;;;;;;9.73;1.23;;;14.70;99.90;;;;;;5027061;28;20026;-68
2022/07/21 03:51:00;;;;;;;8.88;1.02;;;14.70;99.90;;;;;;5026577;28;20034;-68
2022/07/21 03:53:28;;;;;;;5.60;1.13;;;14.60;99.90;;;;;;5029122;28;20038;-67
2022/07/21 03:55:56;;;;;;;8.80;1.05;;;14.70;99.90;;;;;;5026992;28;20025;-67
2022/07/21 03:58:23;;;;;;;14.75;1.77;;;14.60;99.90;;;;;;5025404;28;20128;-67
2022/07/21 04:00:50;;;;;;;8.35;0.95;;;14.50;99.90;;;;;;5028684;28;20060;-66
2022/07/21 04:03:18;;;;;;;7.55;1.10;;;14.10;99.90;;;;;;5029097;28;20049;-66
2022/07/21 04:05:45;;;;;;;8.95;0.90;;;13.50;99.90;;;;;;5030597;28;20025;-67
2022/07/21 04:08:13;;;;;;;10.40;1.05;;;13.50;99.90;;;;;;5030406;28;20042;-67
2022/07/21 04:10:42;;;;;;;7.05;1.15;;;13.50;99.90;;;;;;5037068;28;20018;-68
2022/07/21 04:13:12;;;;;;;11.75;1.30;;;13.50;99.90;;;;;;5036683;28;20026;-68
2022/07/21 04:15:40;;;;;;;10.63;1.73;;;13.50;99.90;;;;;;5029378;28;20152;-68
2022/07/21 04:18:08;;;;;;;9.15;1.98;;;13.60;99.90;;;;;;5035001;28;20032;-68
2022/07/21 04:20:36;;;;;;;14.13;1.50;;;13.50;99.90;;;;;;5031120;28;20194;-69
2022/07/21 04:23:06;;;;;;;14.98;3.33;;;13.50;99.90;;;;;;5030160;28;20049;-68
2022/07/21 04:25:35;;;;;;;11.20;1.50;;;13.50;99.90;;;;;;5014416;28;20053;-68
2022/07/21 04:28:02;;;;;;;8.55;1.45;;;13.60;99.90;;;;;;5036383;28;20014;-68
2022/07/21 04:30:30;;;;;;;8.23;1.17;;;13.60;99.90;;;;;;5026822;28;20033;-68
2022/07/21 04:32:58;;;;;;;9.02;1.90;;;13.70;99.90;;;;;;5035745;28;20665;-67
2022/07/21 04:35:25;;;;;;;6.20;1.50;;;13.80;99.90;;;;;;5035896;28;20077;-66
2022/07/21 04:37:53;;;;;;;11.93;1.33;;;13.90;99.90;;;;;;5032398;28;20037;-67
2022/07/21 04:40:20;;;;;;;7.95;1.08;;;14.00;99.90;;;;;;5030924;28;20017;-66
2022/07/21 04:42:47;;;;;;;9.02;1.00;;;13.90;99.90;;;;;;5035391;28;20025;-67
2022/07/21 04:45:16;;;;;;;7.10;0.60;;;14.00;99.90;;;;;;5033696;28;20038;-68
2022/07/21 04:47:48;;;;;;;5.03;0.77;;;14.20;99.90;;;;;;5036331;28;20044;-67
2022/07/21 04:50:16;;;;;;;4.00;1.10;;;14.30;99.90;;;;;;5030338;28;20038;-66
2022/07/21 04:52:45;;;;;;;5.57;0.85;;;14.20;99.90;;;;;;5036887;28;20026;-68
2022/07/21 04:55:13;;;;;;;7.93;0.90;;;14.20;99.90;;;;;;5029159;28;20074;-67
2022/07/21 04:57:43;;;;;;;6.07;0.90;;;14.20;99.90;;;;;;5029198;28;20068;-68
2022/07/21 05:00:16;;;;;;;5.75;1.63;;;14.30;99.90;;;;;;5023456;28;20060;-68
2022/07/21 05:02:45;;;;;;;5.80;1.00;;;14.30;99.90;;;;;;5026670;28;20040;-67
2022/07/21 05:05:13;;;;;;;4.78;1.00;;;14.40;99.90;;;;;;5016336;28;20404;-68
2022/07/21 05:07:41;;;;;;;3.03;0.65;;;14.50;99.90;;;;;;5031232;28;20038;-69
2022/07/21 05:10:11;;;;;;;6.90;1.05;;;14.50;99.90;;;;;;5033278;28;20029;-68
2022/07/21 05:12:38;;;;;;;3.80;0.60;;;14.30;99.90;;;;;;5023480;28;20029;-68
2022/07/21 05:15:07;;;;;;;7.15;1.50;;;14.30;99.90;;;;;;5027333;28;20045;-68
2022/07/21 05:17:35;;;;;;;5.97;1.25;;;14.40;99.90;;;;;;5009226;28;20383;-69
2022/07/21 05:20:03;;;;;;;9.25;1.63;;;14.50;99.90;;;;;;5030164;28;20092;-69
2022/07/21 05:22:30;;;;;;;10.35;0.82;;;14.50;99.90;;;;;;5029217;28;20038;-68
2022/07/21 05:24:58;;;;;;;9.50;1.38;;;14.60;99.90;;;;;;5027606;28;20026;-68
2022/07/21 05:27:25;;;;;;;11.75;2.40;;;14.60;99.90;;;;;;5025275;28;20042;-67
2022/07/21 05:29:52;;;;;;;5.72;0.80;;;14.60;99.90;;;;;;5023549;28;20042;-68
2022/07/21 05:32:19;;;;;;;10.50;1.23;;;14.60;99.90;;;;;;5025499;28;20097;-68
2022/07/21 05:34:47;;;;;;;9.57;1.23;;;14.60;99.90;;;;;;5012272;28;20077;-69
2022/07/21 05:37:14;;;;;;;10.35;1.25;;;14.60;99.90;;;;;;5020216;28;20049;-68
2022/07/21 05:39:41;;;;;;;8.65;1.30;;;14.60;99.90;;;;;;5015569;28;20069;-68
2022/07/21 05:42:09;;;;;;;10.32;2.13;;;14.60;99.90;;;;;;5021894;28;20076;-69
2022/07/21 05:44:36;;;;;;;11.75;1.63;;;14.70;99.90;;;;;;5021121;28;20026;-68
2022/07/21 05:47:03;;;;;;;7.75;1.30;;;14.70;99.90;;;;;;5019893;28;20037;-68
2022/07/21 05:49:31;;;;;;;10.48;0.82;;;14.70;99.90;;;;;;5009178;28;20061;-69
2022/07/21 05:51:58;;;;;;;14.18;3.50;;;14.70;99.90;;;;;;5019198;28;20108;-69
2022/07/21 05:54:25;;;;;;;10.43;1.23;;;14.70;99.90;;;;;;5003457;28;20042;-69
2022/07/21 05:56:52;;;;;;;7.75;0.88;;;14.80;99.90;;;;;;5016480;28;20037;-69
2022/07/21 05:59:20;;;;;;;8.63;0.95;;;14.80;99.90;;;;;;5017384;28;20038;-70
2022/07/21 06:01:47;;;;;;;13.70;2.03;;;14.80;99.90;;;;;;5011407;28;20049;-68
2022/07/21 06:04:14;;;;;;;10.48;1.50;;;14.90;99.90;;;;;;5019475;28;20042;-68
2022/07/21 06:06:42;;;;;;;11.40;1.35;;;14.90;99.90;;;;;;5012592;28;20042;-69
2022/07/21 06:09:09;;;;;;;12.18;2.22;;;14.90;99.90;;;;;;5003005;28;20514;-69
2022/07/21 06:11:36;;;;;;;12.40;1.63;;;14.80;99.90;;;;;;5014533;28;20053;-67
2022/07/21 06:14:04;;;;;;;10.93;1.75;;;14.50;99.90;;;;;;5022206;28;20060;-68
2022/07/21 06:16:31;;;;;;;10.52;1.50;;;14.20;99.90;;;;;;5027931;28;20042;-68
2022/07/21 06:19:01;;;;;;;9.43;2.10;;;14.00;99.90;;;;;;5018110;28;20105;-68
2022/07/21 06:21:29;;;;;;;10.85;1.65;;;13.80;99.90;;;;;;5024536;28;20038;-68
2022/07/21 06:23:56;;;;;;;14.05;2.30;;;13.80;99.90;;;;;;5022582;28;20289;-68
2022/07/21 06:26:23;;;;;;;14.85;1.73;;;13.70;99.90;;;;;;5025205;28;20097;-68
2022/07/21 06:28:51;;;;;;;13.02;1.73;;;13.60;99.90;;;;;;5027248;28;20049;-67
2022/07/21 06:31:18;;;;;;;14.75;1.45;;;13.60;99.90;;;;;;5027842;28;20026;-68
2022/07/21 06:33:45;;;;;;;12.27;3.03;;;13.60;99.90;;;;;;5017625;28;20069;-69
2022/07/21 06:36:13;;;;;;;12.57;2.75;;;13.60;99.90;;;;;;5013749;28;20049;-69
2022/07/21 06:38:40;;;;;;;10.48;2.15;;;13.60;99.90;;;;;;5013649;28;20038;-70
2022/07/21 06:41:07;;;;;;;16.70;2.70;;;13.60;99.90;;;;;;5014734;28;20115;-70
2022/07/21 06:43:35;;;;;;;14.63;3.03;;;13.60;99.90;;;;;;5017090;28;20034;-70
2022/07/21 06:46:02;;;;;;;13.55;2.08;;;13.60;99.90;;;;;;5012127;28;20104;-69
2022/07/21 06:48:30;;;;;;;9.18;1.73;;;13.50;99.90;;;;;;4991501;28;20423;-69
2022/07/21 06:50:58;;;;;;;16.85;2.00;;;13.50;99.90;;;;;;5012065;28;20044;-70
2022/07/21 06:53:26;;;;;;;9.95;1.63;;;13.60;99.90;;;;;;5011159;28;20085;-69
2022/07/21 06:55:53;;;;;;;15.80;2.03;;;13.60;99.90;;;;;;5012804;28;20034;-70
2022/07/21 06:58:24;;;;;;;12.40;1.77;;;13.60;99.90;;;;;;5016038;28;20034;-70
2022/07/21 07:00:52;;;;;;;12.38;2.30;;;13.50;99.90;;;;;;5006445;28;20033;-69
2022/07/21 07:03:20;;;;;;;10.48;1.42;;;13.50;99.90;;;;;;4997380;28;20038;-69
2022/07/21 07:05:48;;;;;;;10.20;1.48;;;13.50;99.90;;;;;;5015464;28;20169;-69
2022/07/21 07:08:16;;;;;;;13.73;1.80;;;13.60;99.90;;;;;;5017511;28;20034;-69
2022/07/21 07:10:46;;;;;;;14.35;1.92;;;13.60;99.90;;;;;;5016081;28;20045;-69
2022/07/21 07:13:15;;;;;;;10.90;2.35;;;13.80;99.90;;;;;;4999577;28;20034;-70
2022/07/21 07:15:42;;;;;;;11.10;1.27;;;13.80;99.90;;;;;;5011345;28;20030;-71
2022/07/21 07:18:09;;;;;;;16.95;1.95;;;13.90;99.90;;;;;;5009536;28;20120;-68
2022/07/21 07:20:37;;;;;;;8.88;1.25;;;14.10;99.90;;;;;;5010477;28;20026;-70
2022/07/21 07:23:05;;;;;;;10.07;1.35;;;14.10;99.90;;;;;;5015745;28;20053;-70
2022/07/21 07:25:33;;;;;;;7.47;1.13;;;14.10;99.90;;;;;;5001727;28;20069;-70
2022/07/21 07:28:01;;;;;;;7.72;1.67;;;14.00;99.90;;;;;;5015808;28;20091;-69
2022/07/21 07:30:29;;;;;;;17.90;1.95;;;14.10;99.90;;;;;;5014928;28;20034;-70
2022/07/21 07:32:56;;;;;;;7.70;1.23;;;14.20;99.90;;;;;;5002370;28;20046;-70
2022/07/21 07:35:23;;;;;;;7.43;1.20;;;14.30;99.90;;;;;;5003142;28;20050;-69
2022/07/21 07:37:51;;;;;;;7.32;1.08;;;14.40;99.90;;;;;;5016102;28;20038;-70
2022/07/21 07:40:20;;;;;;;8.60;1.00;;;14.40;99.90;;;;;;5009305;28;20121;-70
2022/07/21 07:42:48;;;;;;;5.78;0.90;;;14.40;99.90;;;;;;5009963;28;20033;-71
2022/07/21 07:45:15;;;;;;;7.50;0.82;;;14.40;99.90;;;;;;5009400;28;20145;-71
2022/07/21 07:47:43;;;;;;;11.88;1.45;;;14.40;99.90;;;;;;5010950;28;20479;-71
2022/07/21 07:50:13;;;;;;;8.15;1.25;;;14.40;99.90;;;;;;5004558;28;20030;-70
2022/07/21 07:52:43;;;;;;;10.90;2.17;;;14.50;99.90;;;;;;5004957;28;20041;-71
2022/07/21 07:55:12;;;;;;;10.43;1.88;;;14.50;99.90;;;;;;5006499;28;20503;-71
2022/07/21 07:57:42;;;;;;;15.00;2.67;;;14.50;99.90;;;;;;5004366;28;20056;-71
2022/07/21 08:00:15;;;;;;;10.15;2.00;;;14.50;99.90;;;;;;5009481;28;20034;-70
2022/07/21 08:02:43;;;;;;;8.75;2.10;;;14.50;99.90;;;;;;5004694;28;20110;-71
2022/07/21 08:05:10;;;;;;;7.50;1.42;;;14.50;99.90;;;;;;5010813;28;20042;-70
2022/07/21 08:07:39;;;;;;;10.23;1.10;;;14.50;99.90;;;;;;5006962;28;20042;-69
2022/07/21 08:10:08;;;;;;;11.55;1.45;;;14.50;99.90;;;;;;5007361;28;20150;-71
2022/07/21 08:12:37;;;;;;;10.55;1.65;;;14.60;99.90;;;;;;5004694;28;20103;-71
2022/07/21 08:15:06;;;;;;;11.05;1.38;;;14.60;99.90;;;;;;5008803;28;20376;-69
2022/07/21 08:17:33;;;;;;;7.93;1.17;;;14.60;99.90;;;;;;5013314;28;20042;-70
2022/07/21 08:20:00;;;;;;;14.80;1.45;;;14.60;99.90;;;;;;5014501;28;20156;-70
2022/07/21 08:22:28;;;;;;;16.55;1.55;;;14.50;99.90;;;;;;5010956;28;20038;-70
2022/07/21 08:24:55;;;;;;;11.48;1.50;;;14.50;99.90;;;;;;5005569;28;21798;-71
2022/07/21 08:27:22;;;;;;;13.50;2.13;;;14.50;99.90;;;;;;5009881;28;20041;-70
2022/07/21 08:29:50;;;;;;;9.07;1.25;;;14.50;99.90;;;;;;5009635;28;20515;-70
2022/07/21 08:32:17;;;;;;;18.05;2.42;;;14.40;99.90;;;;;;5000756;28;20034;-71
2022/07/21 08:34:45;;;;;;;16.50;2.20;;;14.50;99.90;;;;;;5006926;28;20045;-70
2022/07/21 08:37:13;;;;;;;17.10;3.95;;;14.50;99.90;;;;;;5009393;28;20034;-72
2022/07/21 08:39:40;;;;;;;12.55;2.30;;;14.50;99.90;;;;;;5012153;28;20040;-71
2022/07/21 08:42:08;;;;;;;8.50;1.35;;;14.50;99.90;;;;;;5009075;28;20042;-71
2022/07/21 08:44:35;;;;;;;9.98;2.08;;;14.70;99.90;;;;;;5007957;28;20442;-72
2022/07/21 08:47:04;;;;;;;7.30;1.23;;;14.70;99.90;;;;;;5006120;28;20425;-71
2022/07/21 08:49:36;;;;;;;14.15;1.20;;;14.70;99.90;;;;;;5007719;28;20046;-71
2022/07/21 08:52:07;;;;;;;7.28;1.65;;;14.70;99.90;;;;;;5008473;28;20049;-71
2022/07/21 08:54:35;;;;;;;6.55;1.17;;;14.80;99.90;;;;;;5002137;28;20034;-71
2022/07/21 08:57:02;;;;;;;10.32;1.70;;;14.80;99.90;;;;;;5009513;28;20033;-70
2022/07/21 08:59:29;;;;;;;16.27;2.63;;;14.80;99.90;;;;;;4993483;28;20034;-71
2022/07/21 09:01:57;;;;;;;11.27;1.42;;;14.80;99.90;;;;;;5005017;28;20521;-70
2022/07/21 09:04:35;;;;;;;11.65;3.10;;;14.70;99.90;;;;;;5008165;28;20041;-72
2022/07/21 09:07:05;;;;;;;10.45;1.55;;;14.70;99.90;;;;;;5008748;28;20035;-71
2022/07/21 09:09:34;;;;;;;12.02;2.10;;;14.70;99.90;;;;;;4992272;28;20494;-71
2022/07/21 09:12:03;;;;;;;8.23;1.15;;;14.70;99.90;;;;;;5009314;28;20113;-70
2022/07/21 09:14:32;;;;;;;10.38;1.00;;;14.70;99.90;;;;;;5011492;28;20049;-70
2022/07/21 09:17:03;;;;;;;7.97;1.55;;;14.80;99.90;;;;;;5010144;28;20070;-72
2022/07/21 09:19:38;;;;;;;7.50;1.50;;;14.80;99.90;;;;;;5007257;28;20068;-69
2022/07/21 09:22:18;;;;;;;8.05;1.17;;;14.70;99.90;;;;;;5009578;28;20045;-67
2022/07/21 09:24:52;;;;;;;11.68;1.25;;;14.70;99.90;;;;;;5012622;28;20120;-69
2022/07/21 09:27:24;;;;;;;9.10;2.25;;;14.70;99.90;;;;;;4997905;28;20077;-68
2022/07/21 09:29:56;;;;;;;12.18;1.58;;;14.70;99.90;;;;;;5015175;28;20044;-69
2022/07/21 09:32:31;;;;;;;12.65;2.60;;;14.80;99.90;;;;;;5010802;28;20533;-68
2022/07/21 09:35:06;;;;;;;8.93;1.50;;;14.80;99.90;;;;;;5007753;28;20083;-69
2022/07/21 09:37:34;;;;;;;6.65;1.02;;;14.90;99.90;;;;;;5015374;28;20040;-70
2022/07/21 09:40:10;;;;;;;10.20;1.83;;;14.70;99.90;;;;;;5017944;28;20041;-69
2022/07/21 09:42:42;;;;;;;9.57;1.17;;;14.50;99.90;;;;;;5013963;28;20398;-70
2022/07/21 09:45:19;;;;;;;8.77;1.85;;;14.50;99.90;;;;;;5006778;28;20057;-70
2022/07/21 09:47:47;;;;;;;8.05;1.35;;;14.60;99.90;;;;;;5010665;28;20514;-69
2022/07/21 09:50:17;;;;;;;6.57;1.00;;;14.60;99.90;;;;;;5014013;28;20034;-69
2022/07/21 09:52:46;;;;;;;6.18;1.15;;;14.70;99.90;;;;;;5013309;28;20034;-69
2022/07/21 09:55:16;;;;;;;9.95;1.83;;;14.70;99.90;;;;;;5012453;28;20050;-69
2022/07/21 09:57:45;;;;;;;13.00;1.83;;;14.60;99.90;;;;;;5014605;28;20037;-69
2022/07/21 10:00:15;;;;;;;11.70;1.23;;;14.70;99.90;;;;;;5013505;28;20109;-70
2022/07/21 10:02:45;;;;;;;9.40;1.10;;;14.60;99.90;;;;;;5008742;28;20034;-70
2022/07/21 10:05:19;;;;;;;6.50;0.90;;;14.60;99.90;;;;;;5005183;28;20407;-69
2022/07/21 10:07:48;;;;;;;9.45;1.27;;;14.60;99.90;;;;;;5007071;28;20040;-69
2022/07/21 10:10:17;;;;;;;4.70;1.40;;;14.60;99.90;;;;;;5016375;28;20030;-69
2022/07/21 10:12:46;;;;;;;7.68;1.10;;;14.70;99.90;;;;;;4996504;28;20061;-70
2022/07/21 10:15:13;;;;;;;7.38;1.10;;;14.70;99.90;;;;;;5013611;28;20125;-68
2022/07/21 10:17:41;;;;;;;12.60;2.05;;;14.70;99.90;;;;;;5007250;28;20561;-69
2022/07/21 10:20:32;;;;;;;8.75;1.15;;;14.70;99.90;;;;;;4999203;28;20049;-69
2022/07/21 10:23:09;;;;;;;8.48;1.23;;;14.70;99.90;;;;;;4998584;28;20041;-69
2022/07/21 10:25:37;;;;;;;8.75;1.45;;;14.70;99.90;;;;;;4999659;28;20559;-69
2022/07/21 10:28:15;;;;;;;7.80;1.20;;;14.70;99.90;;;;;;5014575;28;20046;-68
2022/07/21 10:31:06;;;;;;;9.63;1.58;;;14.70;99.90;;;;;;5014573;28;20458;-69
2022/07/21 10:33:52;;;;;;;15.65;5.18;;;14.70;99.90;;;;;;5019045;28;20088;-68
2022/07/21 10:36:31;;;;;;;21.88;10.10;;;14.70;99.90;;;;;;5018572;28;20054;-68
2022/07/21 10:39:10;;;;;;;9.40;2.90;;;14.70;99.90;;;;;;5018929;28;20596;-69
2022/07/21 10:41:45;;;;;;;8.80;1.63;;;14.70;99.90;;;;;;4982676;28;20034;-69
2022/07/21 10:44:31;;;;;;;9.18;1.88;;;14.70;99.90;;;;;;5001408;28;20026;-68
2022/07/21 10:47:08;;;;;;;13.32;2.35;;;14.80;99.90;;;;;;5001807;28;20039;-69
2022/07/21 10:49:48;;;;;;;9.18;1.83;;;14.80;99.90;;;;;;5017008;28;20034;-69
2022/07/21 10:52:41;;;;;;;5.68;0.75;;;14.80;99.90;;;;;;5019123;28;20057;-69
2022/07/21 10:55:11;;;;;;;7.88;1.27;;;14.90;99.90;;;;;;4996267;28;20042;-69
2022/07/21 10:57:42;;;;;;;13.10;1.50;;;14.90;99.90;;;;;;5005622;28;20026;-69
2022/07/21 11:00:28;;;;;;;7.63;1.20;;;14.90;99.90;;;;;;5018567;28;20041;-69
2022/07/21 11:02:58;;;;;;;11.77;1.67;;;14.90;99.90;;;;;;5019386;28;20029;-69
2022/07/21 11:05:28;;;;;;;13.05;2.00;;;15.00;99.90;;;;;;5016535;28;20553;-69
2022/07/21 11:08:11;;;;;;;7.57;1.15;;;14.90;99.90;;;;;;5016460;28;20053;-69
2022/07/21 11:10:51;;;;;;;7.80;1.70;;;14.90;99.90;;;;;;5017793;28;20042;-68
2022/07/21 11:13:25;;;;;;;12.98;2.45;;;14.80;99.90;;;;;;5024535;28;20037;-69
2022/07/21 11:16:00;;;;;;;8.38;1.73;;;14.70;99.90;;;;;;5003826;28;20120;-69
2022/07/21 11:18:30;;;;;;;8.05;0.93;;;14.70;99.90;;;;;;5011444;28;20406;-69
2022/07/21 11:21:09;;;;;;;8.57;0.90;;;14.80;99.90;;;;;;5002956;28;20038;-69
2022/07/21 11:23:45;;;;;;;8.52;1.13;;;14.90;99.90;;;;;;5013734;28;20030;-69
2022/07/21 11:26:14;;;;;;;16.35;2.03;;;14.90;99.90;;;;;;5014601;28;20113;-71
2022/07/21 11:28:41;;;;;;;8.10;1.27;;;14.90;99.90;;;;;;5004700;28;20035;-70
2022/07/21 11:31:15;;;;;;;13.85;1.70;;;14.80;99.90;;;;;;5004530;28;20044;-70
2022/07/21 11:33:46;;;;;;;13.48;1.70;;;14.60;99.90;;;;;;5003572;28;20572;-69
2022/07/21 11:36:31;;;;;;;6.38;1.00;;;14.30;99.90;;;;;;5003680;28;20128;-70
2022/07/21 11:39:10;;;;;;;6.63;0.82;;;14.10;99.90;;;;;;5007033;28;20044;-69
2022/07/21 11:41:40;;;;;;;6.22;1.75;;;14.00;99.90;;;;;;5003587;28;20045;-68
2022/07/21 11:44:09;;;;;;;11.65;1.35;;;14.00;99.90;;;;;;5006892;28;20053;-69
2022/07/21 11:46:57;;;;;;;13.65;1.80;;;14.00;99.90;;;;;;5012257;28;20030;-69
2022/07/21 11:49:25;;;;;;;5.60;1.10;;;14.10;99.90;;;;;;5011944;28;20546;-69
2022/07/21 11:51:58;;;;;;;11.75;1.65;;;14.10;99.90;;;;;;5010316;28;20034;-70
2022/07/21 11:54:30;;;;;;;9.77;1.27;;;14.10;99.90;;;;;;5007382;28;20099;-68
2022/07/21 11:57:00;;;;;;;10.05;1.60;;;14.10;99.90;;;;;;5005722;28;20046;-68
2022/07/21 11:59:28;;;;;;;8.70;1.50;;;14.20;99.90;;;;;;5007172;28;20045;-69
2022/07/21 12:02:07;;;;;;;10.10;1.10;;;14.20;99.90;;;;;;5007910;28;20037;-68
2022/07/21 12:04:47;;;;;;;6.30;1.25;;;14.30;99.90;;;;;;5006627;28;20030;-68
2022/07/21 12:07:42;;;;;;;16.95;1.77;;;14.40;99.90;;;;;;4992610;28;20034;-68
2022/07/21 12:10:18;;;;;;;5.88;1.02;;;14.40;99.90;;;;;;5005817;28;20045;-69
2022/07/21 12:12:48;;;;;;;11.68;1.52;;;14.30;99.90;;;;;;5009418;28;20041;-69
2022/07/21 12:15:17;;;;;;;10.20;1.00;;;14.30;99.90;;;;;;5004437;28;20034;-69
2022/07/21 12:17:53;;;;;;;2.65;0.45;;;14.30;99.90;;;;;;5015284;28;20065;-68
2022/07/21 12:20:31;;;;;;;8.02;1.40;;;14.40;99.90;;;;;;5016000;28;20026;-69
2022/07/21 12:23:02;;;;;;;8.30;1.10;;;14.40;99.90;;;;;;5002869;28;20026;-70
2022/07/21 12:25:40;;;;;;;4.45;0.77;;;14.30;99.90;;;;;;5008569;28;20054;-69
2022/07/21 12:28:08;;;;;;;10.27;1.05;;;14.30;99.90;;;;;;5008444;28;20038;-69
2022/07/21 12:30:39;;;;;;;6.65;0.80;;;14.30;99.90;;;;;;5009415;28;20402;-69
2022/07/21 12:33:20;;;;;;;6.57;1.08;;;14.20;99.90;;;;;;4992347;28;20041;-69
2022/07/21 12:36:03;;;;;;;6.05;0.60;;;14.30;99.90;;;;;;5008811;28;20038;-69
2022/07/21 12:38:47;;;;;;;6.13;0.63;;;14.30;99.90;;;;;;5008024;28;20109;-69
2022/07/21 12:41:19;;;;;;;5.03;1.00;;;14.30;99.90;;;;;;5007512;28;20822;-69
2022/07/21 12:44:00;;;;;;;4.15;0.40;;;14.30;99.90;;;;;;5006809;28;20029;-69
2022/07/21 12:46:38;;;;;;;3.83;0.80;;;14.30;99.90;;;;;;4993281;28;20044;-70
2022/07/21 12:49:10;;;;;;;11.50;0.73;;;14.30;99.90;;;;;;5007736;28;20030;-69
2022/07/21 12:51:38;;;;;;;3.17;0.70;;;14.30;99.90;;;;;;5009165;28;20549;-69
2022/07/21 12:54:06;;;;;;;6.18;0.85;;;14.40;99.90;;;;;;5007793;28;20416;-70
2022/07/21 12:56:35;;;;;;;8.30;0.63;;;14.40;99.90;;;;;;5008886;28;20037;-69
2022/07/21 12:59:04;;;;;;;7.78;1.00;;;14.40;99.90;;;;;;5008394;28;20117;-69